Time;durP1;ratioP1;P1;durP2;ratioP2;P2;SDS_P1;SDS_P2;PMS_P1;PMS_P2;Temp;Humidity;BMP_temperature;BMP_pressure;BME280_temperature;BME280_humidity;BME280_pressure;Samples;Min_cycle;Max_cycle;Signal;HPM_P1;HPM_P2
2022/05/21 00:00:46;;;;;;;3.85;1.63;;;;;;;;;;4972925;28;20039;-61
2022/05/21 00:03:14;;;;;;;4.45;1.50;;;;;;;;;;4973006;28;20089;-58
2022/05/21 00:05:41;;;;;;;3.25;1.52;;;;;;;;;;4972836;28;20529;-57
2022/05/21 00:08:09;;;;;;;2.67;1.70;;;;;;;;;;4973136;28;20040;-60
2022/05/21 00:10:39;;;;;;;3.28;1.60;;;;;;;;;;4973061;28;20082;-59
2022/05/21 00:13:06;;;;;;;3.38;2.03;;;;;;;;;;4972969;28;20049;-60
2022/05/21 00:15:35;;;;;;;4.00;1.88;;;;;;;;;;4973111;28;20050;-60
2022/05/21 00:18:04;;;;;;;3.40;1.73;;;;;;;;;;4972968;28;20045;-57
2022/05/21 00:20:47;;;;;;;2.83;1.75;;;;;;;;;;4955503;28;20058;-57
2022/05/21 00:23:20;;;;;;;3.90;1.97;;;;;;;;;;4972440;28;20125;-61
2022/05/21 00:25:51;;;;;;;3.35;2.00;;;;;;;;;;4955650;28;20039;-59
2022/05/21 00:28:18;;;;;;;2.97;2.08;;;;;;;;;;4979698;28;20042;-58
2022/05/21 00:30:46;;;;;;;2.70;1.75;;;;;;;;;;4974465;28;20051;-58
2022/05/21 00:33:13;;;;;;;2.45;1.52;;;;;;;;;;4991912;28;20501;-60
2022/05/21 00:35:40;;;;;;;3.08;1.75;;;;;;;;;;4991756;28;20038;-62
2022/05/21 00:38:09;;;;;;;3.03;1.83;;;;;;;;;;4992191;28;20069;-59
2022/05/21 00:40:38;;;;;;;2.40;1.50;;;;;;;;;;4989998;28;20038;-59
2022/05/21 00:43:06;;;;;;;3.63;2.05;;;;;;;;;;4971216;28;20053;-60
2022/05/21 00:45:33;;;;;;;3.22;1.95;;;;;;;;;;4972477;28;20398;-55
2022/05/21 00:48:00;;;;;;;13.05;2.25;;;;;;;;;;4972353;28;20425;-50
2022/05/21 00:50:29;;;;;;;7.38;2.20;;;;;;;;;;4972235;28;20050;-52
2022/05/21 00:52:58;;;;;;;2.45;1.60;;;;;;;;;;4972298;28;20046;-51
2022/05/21 00:55:31;;;;;;;4.43;2.28;;;;;;;;;;4955613;28;20585;-55
2022/05/21 01:00:58;;;;;;;5.00;1.75;;;;;;;;;;4966256;28;20533;-57
2022/05/21 01:03:29;;;;;;;3.55;1.77;;;;;;;;;;4975960;28;20557;-60
2022/05/21 01:05:58;;;;;;;4.22;1.90;;;;;;;;;;4976093;28;20557;-59
2022/05/21 01:08:25;;;;;;;4.38;1.80;;;;;;;;;;4975902;28;20049;-59
2022/05/21 01:10:57;;;;;;;3.42;1.80;;;;;;;;;;4976168;28;20049;-63
2022/05/21 01:13:27;;;;;;;2.63;1.83;;;;;;;;;;4975807;28;20038;-64
2022/05/21 01:15:55;;;;;;;2.58;1.65;;;;;;;;;;4958699;28;20046;-59
2022/05/21 01:18:22;;;;;;;2.63;1.60;;;;;;;;;;4975964;28;20039;-53
2022/05/21 01:20:55;;;;;;;3.03;1.63;;;;;;;;;;4975887;28;20109;-66
2022/05/21 01:23:23;;;;;;;6.10;2.05;;;;;;;;;;4975635;28;20043;-61
2022/05/21 01:25:52;;;;;;;5.55;1.92;;;;;;;;;;4975717;28;20118;-60
2022/05/21 01:28:22;;;;;;;3.42;2.10;;;;;;;;;;4983020;28;20058;-59
2022/05/21 01:30:56;;;;;;;3.22;2.10;;;;;;;;;;4995306;28;20038;-62
2022/05/21 01:33:28;;;;;;;4.13;1.80;;;;;;;;;;4994972;28;20049;-61
2022/05/21 01:35:57;;;;;;;3.85;1.90;;;;;;;;;;4995054;28;20129;-64
2022/05/21 01:38:27;;;;;;;3.13;2.25;;;;;;;;;;4994684;28;20121;-61
2022/05/21 01:40:55;;;;;;;2.80;1.52;;;;;;;;;;4975821;28;20039;-65
2022/05/21 01:46:09;;;;;;;3.45;2.17;;;;;;;;;;4975660;28;20375;-59
2022/05/21 01:48:36;;;;;;;8.77;2.10;;;;;;;;;;4975323;28;20078;-58
2022/05/21 01:51:06;;;;;;;3.38;1.63;;;;;;;;;;4958392;28;20117;-58
2022/05/21 01:53:35;;;;;;;2.90;1.65;;;;;;;;;;4975327;28;20045;-60
2022/05/21 01:56:04;;;;;;;3.50;1.90;;;;;;;;;;4975377;28;20039;-60
2022/05/21 01:58:32;;;;;;;2.63;1.58;;;;;;;;;;4975267;28;20685;-59
2022/05/21 02:01:00;;;;;;;3.03;1.88;;;;;;;;;;4975248;28;20122;-66
2022/05/21 02:03:27;;;;;;;4.85;1.95;;;;;;;;;;4974972;28;20070;-62
2022/05/21 02:05:55;;;;;;;2.70;1.80;;;;;;;;;;4975213;28;20038;-63
2022/05/21 02:08:22;;;;;;;3.22;1.60;;;;;;;;;;4973967;28;20576;-59
2022/05/21 02:10:51;;;;;;;2.95;1.60;;;;;;;;;;4975169;28;20046;-59
2022/05/21 02:13:30;;;;;;;3.22;1.30;;;;;;;;;;4974827;28;20513;-54
2022/05/21 02:15:57;;;;;;;1.98;1.30;;;;;;;;;;4974885;28;20129;-53
2022/05/21 02:18:25;;;;;;;3.80;1.73;;;;;;;;;;4974758;28;20121;-51
2022/05/21 02:20:53;;;;;;;5.32;1.77;;;;;;;;;;4974820;28;20122;-55
2022/05/21 02:23:21;;;;;;;3.22;1.83;;;;;;;;;;4974698;28;20035;-55
2022/05/21 02:25:49;;;;;;;4.88;1.70;;;;;;;;;;4974884;28;20043;-59
2022/05/21 02:28:17;;;;;;;5.90;1.55;;;;;;;;;;4981609;28;20410;-59
2022/05/21 02:30:44;;;;;;;6.75;1.80;;;;;;;;;;4994063;28;20097;-63
2022/05/21 02:33:12;;;;;;;4.75;2.00;;;;;;;;;;4994200;28;20077;-56
2022/05/21 02:35:39;;;;;;;3.00;1.80;;;;;;;;;;4994260;28;20122;-59
2022/05/21 02:40:53;;;;;;;2.67;1.58;;;;;;;;;;4993863;28;20417;-66
2022/05/21 02:43:20;;;;;;;2.25;1.50;;;;;;;;;;4993942;28;20038;-60
2022/05/21 02:45:49;;;;;;;5.03;2.10;;;;;;;;;;4993752;28;20952;-64
2022/05/21 02:48:17;;;;;;;9.15;2.08;;;;;;;;;;4993492;28;20121;-63
2022/05/21 02:50:44;;;;;;;7.60;1.83;;;;;;;;;;4993758;28;20452;-59
2022/05/21 02:53:18;;;;;;;3.38;1.75;;;;;;;;;;4993478;28;20050;-65
2022/05/21 02:55:46;;;;;;;5.97;1.80;;;;;;;;;;4993750;28;20446;-49
2022/05/21 02:58:15;;;;;;;2.78;1.50;;;;;;;;;;4976590;28;20042;-51
2022/05/21 03:00:44;;;;;;;1.80;1.48;;;;;;;;;;4993515;28;20049;-53
2022/05/21 03:03:12;;;;;;;2.50;1.58;;;;;;;;;;4993768;28;20048;-51
2022/05/21 03:05:42;;;;;;;3.22;1.70;;;;;;;;;;4993565;28;20073;-52
2022/05/21 03:10:57;;;;;;;2.72;1.50;;;;;;;;;;4991679;28;20031;-50
2022/05/21 03:13:26;;;;;;;2.95;2.00;;;;;;;;;;4973871;28;20137;-60
2022/05/21 03:15:54;;;;;;;3.30;1.65;;;;;;;;;;4973800;28;20411;-58
2022/05/21 03:18:21;;;;;;;5.45;2.22;;;;;;;;;;4972202;28;20050;-59
2022/05/21 03:20:48;;;;;;;3.13;1.80;;;;;;;;;;4973504;28;20443;-55
2022/05/21 03:23:17;;;;;;;2.70;1.75;;;;;;;;;;4973445;28;20502;-59
2022/05/21 03:25:44;;;;;;;4.97;2.00;;;;;;;;;;4972572;28;20055;-64
2022/05/21 03:28:17;;;;;;;2.35;1.70;;;;;;;;;;4980121;28;20042;-61
2022/05/21 03:30:45;;;;;;;7.47;1.80;;;;;;;;;;4992850;28;20042;-64
2022/05/21 03:33:13;;;;;;;7.90;2.33;;;;;;;;;;4992961;28;20041;-55
2022/05/21 03:35:42;;;;;;;2.92;1.73;;;;;;;;;;4992899;28;20237;-61
2022/05/21 03:38:10;;;;;;;3.58;1.50;;;;;;;;;;4993064;28;20050;-62
2022/05/21 03:40:37;;;;;;;4.35;1.60;;;;;;;;;;4992854;28;20402;-57
2022/05/21 03:43:05;;;;;;;3.40;1.70;;;;;;;;;;4992623;28;20050;-50
2022/05/21 03:45:33;;;;;;;3.13;1.50;;;;;;;;;;4992548;28;20600;-48
2022/05/21 03:48:00;;;;;;;5.13;1.40;;;;;;;;;;4992638;28;20052;-52
2022/05/21 03:50:31;;;;;;;3.67;1.60;;;;;;;;;;4992606;28;20042;-50
2022/05/21 03:53:02;;;;;;;2.75;1.70;;;;;;;;;;4992612;28;20046;-52
2022/05/21 03:55:30;;;;;;;2.90;1.50;;;;;;;;;;4992646;28;20433;-49
2022/05/21 03:57:59;;;;;;;3.17;1.80;;;;;;;;;;4992445;28;20093;-52
2022/05/21 04:00:27;;;;;;;2.80;1.80;;;;;;;;;;4992452;28;20077;-50
2022/05/21 04:02:54;;;;;;;3.55;1.67;;;;;;;;;;4992577;28;20049;-53
2022/05/21 04:05:21;;;;;;;2.47;1.55;;;;;;;;;;4992302;28;20065;-58
2022/05/21 04:07:49;;;;;;;5.28;1.67;;;;;;;;;;4992456;28;20497;-65
2022/05/21 04:10:17;;;;;;;2.05;1.38;;;;;;;;;;4992240;28;20045;-59
2022/05/21 04:12:45;;;;;;;3.15;1.80;;;;;;;;;;4992144;28;20038;-61
2022/05/21 04:15:13;;;;;;;3.25;1.63;;;;;;;;;;4992281;28;20046;-60
2022/05/21 04:17:41;;;;;;;2.70;1.33;;;;;;;;;;4992400;28;20078;-61
2022/05/21 04:20:11;;;;;;;2.35;1.48;;;;;;;;;;4975232;28;20051;-57
2022/05/21 04:22:39;;;;;;;4.10;1.58;;;;;;;;;;4992200;28;20039;-52
2022/05/21 04:25:06;;;;;;;14.65;6.57;;;;;;;;;;4991849;28;20047;-62
2022/05/21 04:27:35;;;;;;;4.57;2.58;;;;;;;;;;4990697;28;20046;-63
2022/05/21 04:30:07;;;;;;;2.47;1.38;;;;;;;;;;4954748;28;20529;-60
2022/05/21 04:32:34;;;;;;;2.63;1.40;;;;;;;;;;4972538;28;20042;-57
2022/05/21 04:35:02;;;;;;;3.95;1.90;;;;;;;;;;4972794;28;20050;-64
2022/05/21 04:37:30;;;;;;;4.45;2.20;;;;;;;;;;4972341;28;20074;-64
2022/05/21 04:39:57;;;;;;;5.38;2.70;;;;;;;;;;4972764;28;20039;-56
2022/05/21 04:42:24;;;;;;;10.25;5.90;;;;;;;;;;4972260;28;20537;-59
2022/05/21 04:44:52;;;;;;;10.05;5.75;;;;;;;;;;4972578;28;20466;-63
2022/05/21 04:47:22;;;;;;;14.35;9.10;;;;;;;;;;4972566;28;20051;-59
2022/05/21 04:49:50;;;;;;;13.18;8.00;;;;;;;;;;4972492;28;20491;-60
2022/05/21 04:52:17;;;;;;;183.27;81.20;;;;;;;;;;4972277;28;20126;-58
2022/05/21 04:54:44;;;;;;;26.98;13.55;;;;;;;;;;4972357;28;20042;-63
2022/05/21 04:57:12;;;;;;;10.57;5.28;;;;;;;;;;4972719;28;20565;-59
2022/05/21 04:59:39;;;;;;;6.85;4.28;;;;;;;;;;4972782;28;20098;-62
2022/05/21 05:02:06;;;;;;;4.80;2.45;;;;;;;;;;4972344;28;20552;-59
2022/05/21 05:04:34;;;;;;;2.88;2.05;;;;;;;;;;4972020;28;20058;-61
2022/05/21 05:07:09;;;;;;;4.55;1.70;;;;;;;;;;4972315;28;20069;-60
2022/05/21 05:09:42;;;;;;;6.63;2.17;;;;;;;;;;4972864;28;20047;-48
2022/05/21 05:12:10;;;;;;;4.55;2.50;;;;;;;;;;4972512;28;20058;-52
2022/05/21 05:14:38;;;;;;;3.85;2.22;;;;;;;;;;4972441;28;20126;-51
2022/05/21 05:17:06;;;;;;;3.78;2.22;;;;;;;;;;4971941;28;20167;-50
2022/05/21 05:19:33;;;;;;;9.18;4.60;;;;;;;;;;4954977;28;20055;-50
2022/05/21 05:22:01;;;;;;;7.03;3.70;;;;;;;;;;4972207;28;20042;-52
2022/05/21 05:24:28;;;;;;;5.22;2.20;;;;;;;;;;4947144;28;20065;-51
2022/05/21 05:26:56;;;;;;;5.25;2.45;;;;;;;;;;4972030;28;20082;-52
2022/05/21 05:29:23;;;;;;;4.60;2.08;;;;;;;;;;4987970;28;20118;-53
2022/05/21 05:31:52;;;;;;;5.72;1.80;;;;;;;;;;4991405;28;20038;-53
2022/05/21 05:34:19;;;;;;;2.90;2.10;;;;;;;;;;4974245;28;20039;-54
2022/05/21 05:36:51;;;;;;;2.85;1.70;;;;;;;;;;4991963;28;20454;-66
2022/05/21 05:39:18;;;;;;;4.47;1.85;;;;;;;;;;4991723;28;20534;-58
2022/05/21 05:41:45;;;;;;;3.53;1.67;;;;;;;;;;4992477;28;20416;-59
2022/05/21 05:44:13;;;;;;;3.40;1.77;;;;;;;;;;4994688;28;20046;-60
2022/05/21 05:46:40;;;;;;;3.55;1.63;;;;;;;;;;4995101;28;20093;-57
2022/05/21 05:49:08;;;;;;;4.25;1.95;;;;;;;;;;4995121;28;20082;-58
2022/05/21 05:51:35;;;;;;;28.65;17.00;;;;;;;;;;4994702;28;20073;-63
2022/05/21 05:54:04;;;;;;;5.25;3.13;;;;;;;;;;4994825;28;20085;-64
2022/05/21 05:56:34;;;;;;;4.60;2.30;;;;;;;;;;4994608;28;20078;-58
2022/05/21 06:01:46;;;;;;;4.55;2.75;;;;;;;;;;4994490;28;20049;-63
2022/05/21 06:04:14;;;;;;;6.35;3.10;;;;;;;;;;4994523;28;20054;-61
2022/05/21 06:06:41;;;;;;;3.92;2.00;;;;;;;;;;4994775;28;20137;-65
2022/05/21 06:09:08;;;;;;;4.10;1.88;;;;;;;;;;4994403;28;20554;-59
2022/05/21 06:11:38;;;;;;;2.63;1.95;;;;;;;;;;4994601;28;20104;-62
2022/05/21 06:14:05;;;;;;;4.03;2.05;;;;;;;;;;4994530;28;20073;-64
2022/05/21 06:16:33;;;;;;;3.92;2.30;;;;;;;;;;4994170;28;20460;-59
2022/05/21 06:19:00;;;;;;;3.70;2.63;;;;;;;;;;4994319;28;20046;-61
2022/05/21 06:21:28;;;;;;;3.72;2.20;;;;;;;;;;4994164;28;20034;-54
2022/05/21 06:23:55;;;;;;;4.35;2.40;;;;;;;;;;4993876;28;20038;-58
2022/05/21 06:26:22;;;;;;;41.22;18.33;;;;;;;;;;4993985;28;20137;-55
2022/05/21 06:28:50;;;;;;;9.13;4.63;;;;;;;;;;4982654;28;20043;-63
2022/05/21 06:31:17;;;;;;;3.90;2.40;;;;;;;;;;4974846;28;20454;-52
2022/05/21 06:33:44;;;;;;;4.32;2.50;;;;;;;;;;4974504;28;20128;-55
2022/05/21 06:36:15;;;;;;;3.53;2.38;;;;;;;;;;4974804;28;20121;-58
2022/05/21 06:38:44;;;;;;;4.47;2.53;;;;;;;;;;4974681;28;20047;-58
2022/05/21 06:41:12;;;;;;;3.28;2.13;;;;;;;;;;4974674;28;20126;-48
2022/05/21 06:43:44;;;;;;;3.67;2.20;;;;;;;;;;4974385;28;20051;-59
2022/05/21 06:46:11;;;;;;;3.40;2.00;;;;;;;;;;4974641;28;20114;-51
2022/05/21 06:48:38;;;;;;;4.68;2.20;;;;;;;;;;4974475;28;20051;-54
2022/05/21 06:51:06;;;;;;;3.38;2.35;;;;;;;;;;4974170;28;20043;-54
2022/05/21 06:53:36;;;;;;;5.35;2.20;;;;;;;;;;4973707;28;20138;-53
2022/05/21 06:56:12;;;;;;;5.75;2.20;;;;;;;;;;4974241;28;20047;-55
2022/05/21 06:58:39;;;;;;;3.00;2.00;;;;;;;;;;4974191;28;20038;-53
2022/05/21 07:01:07;;;;;;;3.85;2.45;;;;;;;;;;4974264;28;20691;-52
2022/05/21 07:03:35;;;;;;;3.70;2.50;;;;;;;;;;4956655;28;20121;-47
2022/05/21 07:08:49;;;;;;;4.03;2.22;;;;;;;;;;4973787;28;20070;-53
2022/05/21 07:11:16;;;;;;;4.30;2.10;;;;;;;;;;4957011;28;20057;-55
2022/05/21 07:13:44;;;;;;;3.20;1.88;;;;;;;;;;4973632;28;20061;-59
2022/05/21 07:16:11;;;;;;;3.47;1.90;;;;;;;;;;4973809;28;20045;-51
2022/05/21 07:18:39;;;;;;;5.82;2.00;;;;;;;;;;4973868;28;20043;-58
2022/05/21 07:21:10;;;;;;;2.58;1.80;;;;;;;;;;4973634;28;20542;-55
2022/05/21 07:23:38;;;;;;;3.33;1.73;;;;;;;;;;4973831;28;20037;-58
2022/05/21 07:26:05;;;;;;;2.92;1.98;;;;;;;;;;4973374;28;20042;-63
2022/05/21 07:28:32;;;;;;;3.08;1.85;;;;;;;;;;4982479;28;20049;-52
2022/05/21 07:30:59;;;;;;;2.90;1.83;;;;;;;;;;4993048;28;20039;-58
2022/05/21 07:33:27;;;;;;;14.82;8.05;;;;;;;;;;4992824;28;20482;-53
2022/05/21 07:35:54;;;;;;;6.28;3.20;;;;;;;;;;4988652;28;20035;-48
2022/05/21 07:38:21;;;;;;;3.08;2.25;;;;;;;;;;4973337;28;20034;-52
2022/05/21 07:40:50;;;;;;;2.25;1.70;;;;;;;;;;4973087;28;20050;-53
2022/05/21 07:43:27;;;;;;;3.28;1.85;;;;;;;;;;4973530;28;20042;-54
2022/05/21 07:45:55;;;;;;;4.15;1.60;;;;;;;;;;4973206;28;20053;-62
2022/05/21 07:48:22;;;;;;;2.83;1.73;;;;;;;;;;4973319;28;20046;-57
2022/05/21 07:51:02;;;;;;;2.83;1.75;;;;;;;;;;4982245;28;20501;-64
2022/05/21 07:53:36;;;;;;;2.33;1.48;;;;;;;;;;4969996;28;20160;-54
2022/05/21 07:56:03;;;;;;;17.58;9.57;;;;;;;;;;4973096;28;20049;-62
2022/05/21 07:58:31;;;;;;;25.45;15.68;;;;;;;;;;4972944;28;20522;-59
2022/05/21 08:00:59;;;;;;;9.75;2.80;;;;;;;;;;4972977;28;20043;-66
2022/05/21 08:03:33;;;;;;;3.70;1.63;;;;;;;;;;4972897;28;20082;-63
2022/05/21 08:06:01;;;;;;;2.95;1.80;;;;;;;;;;4971948;28;20050;-58
2022/05/21 08:08:29;;;;;;;4.43;1.83;;;;;;;;;;4973021;28;20138;-57
2022/05/21 08:10:56;;;;;;;4.30;1.60;;;;;;;;;;4972929;28;20058;-52
2022/05/21 08:13:24;;;;;;;4.65;1.55;;;;;;;;;;4972669;28;20047;-52
2022/05/21 08:15:51;;;;;;;2.50;1.45;;;;;;;;;;4972834;28;20047;-49
2022/05/21 08:18:18;;;;;;;4.10;1.52;;;;;;;;;;4972612;28;20050;-57
2022/05/21 08:20:45;;;;;;;3.40;2.03;;;;;;;;;;4972412;28;20129;-50
2022/05/21 08:28:49;;;;;;;2.88;1.65;;;;;;;;;;4983498;28;20136;-53
2022/05/21 08:31:17;;;;;;;3.05;2.03;;;;;;;;;;4992089;28;20041;-55
2022/05/21 08:33:45;;;;;;;7.45;4.10;;;;;;;;;;4992028;28;20038;-54
2022/05/21 08:36:12;;;;;;;43.38;24.02;;;;;;;;;;4992244;28;20050;-52
2022/05/21 08:38:45;;;;;;;7.70;3.33;;;;;;;;;;4992042;28;20038;-60
2022/05/21 08:41:19;;;;;;;3.13;1.65;;;;;;;;;;4992222;28;20862;-54
2022/05/21 08:43:49;;;;;;;;;;;;;;;;;;4992394;28;20088;-53
2022/05/21 08:46:43;;;;;;;2.72;1.52;;;;;;;;;;4991940;28;19921;-63
2022/05/21 08:49:18;;;;;;;2.67;1.35;;;;;;;;;;4992182;28;20035;-62
2022/05/21 08:51:52;;;;;;;2.40;1.50;;;;;;;;;;4991454;28;20042;-57
2022/05/21 08:54:26;;;;;;;2.80;1.70;;;;;;;;;;4991826;28;20038;-62
2022/05/21 08:56:56;;;;;;;2.90;1.58;;;;;;;;;;4991741;28;20057;-61
2022/05/21 08:59:29;;;;;;;3.70;1.20;;;;;;;;;;4991794;28;20042;-59
2022/05/21 09:01:56;;;;;;;2.90;1.25;;;;;;;;;;4991802;28;20042;-60
2022/05/21 09:04:26;;;;;;;3.60;1.40;;;;;;;;;;4977783;28;20071;-62
2022/05/21 09:07:04;;;;;;;2.90;1.20;;;;;;;;;;4972380;28;20455;-62
2022/05/21 09:09:49;;;;;;;4.00;1.23;;;;;;;;;;4972518;28;20050;-60
2022/05/21 09:12:20;;;;;;;1.92;1.15;;;;;;;;;;4972304;28;20499;-61
2022/05/21 09:14:56;;;;;;;2.20;1.40;;;;;;;;;;4971936;28;20054;-60
2022/05/21 09:17:25;;;;;;;2.85;1.83;;;;;;;;;;4974320;28;20053;-61
2022/05/21 09:20:18;;;;;;;6.15;3.22;;;;;;;;;;4975832;28;20062;-60
2022/05/21 09:22:54;;;;;;;2.13;1.20;;;;;;;;;;4975906;28;20039;-57
2022/05/21 09:25:26;;;;;;;1.70;1.20;;;;;;;;;;4975915;28;20093;-51
2022/05/21 09:28:04;;;;;;;1.33;0.75;;;;;;;;;;4979571;28;20181;-64
2022/05/21 09:30:38;;;;;;;2.30;1.08;;;;;;;;;;4995396;28;20119;-53
2022/05/21 09:33:27;;;;;;;2.45;1.17;;;;;;;;;;4995240;28;20386;-54
2022/05/21 09:35:57;;;;;;;2.38;1.23;;;;;;;;;;4995094;28;20497;-53
2022/05/21 09:38:47;;;;;;;11.38;5.82;;;;;;;;;;4995128;28;20567;-55
2022/05/21 09:41:30;;;;;;;5.22;2.85;;;;;;;;;;4995132;28;20058;-60
2022/05/21 09:47:21;;;;;;;3.70;1.48;;;;;;;;;;4994944;28;20042;-53
2022/05/21 09:50:07;;;;;;;4.32;1.30;;;;;;;;;;4994765;28;20054;-51
2022/05/21 09:52:36;;;;;;;1.85;0.93;;;;;;;;;;4994686;28;20136;-56
2022/05/21 09:55:17;;;;;;;3.00;1.30;;;;;;;;;;4994815;28;20058;-55
2022/05/21 09:57:45;;;;;;;3.35;1.20;;;;;;;;;;4994847;28;20104;-52
2022/05/21 10:00:18;;;;;;;2.65;1.20;;;;;;;;;;4994899;28;20084;-53
2022/05/21 10:02:46;;;;;;;;;;;;;;;;;;4994892;28;20050;-55
2022/05/21 10:05:20;;;;;;;3.58;0.90;;;;;;;;;;4994652;28;19922;-54
2022/05/21 10:11:02;;;;;;;2.60;1.30;;;;;;;;;;4994902;28;20057;-53
2022/05/21 10:13:45;;;;;;;6.97;1.50;;;;;;;;;;4994381;28;20051;-54
2022/05/21 10:16:31;;;;;;;2.67;1.25;;;;;;;;;;4994142;28;20121;-52
2022/05/21 10:19:26;;;;;;;2.67;1.20;;;;;;;;;;4974922;28;20050;-67
2022/05/21 10:22:27;;;;;;;1.92;1.10;;;;;;;;;;4967720;28;20054;-53
2022/05/21 10:25:17;;;;;;;2.97;1.60;;;;;;;;;;4957840;28;20047;-55
2022/05/21 10:27:44;;;;;;;5.55;2.58;;;;;;;;;;4971817;28;20172;-60
2022/05/21 10:30:28;;;;;;;2.80;1.40;;;;;;;;;;4994044;28;20092;-52
2022/05/21 10:33:12;;;;;;;4.47;2.30;;;;;;;;;;4994086;28;20035;-61
2022/05/21 10:35:57;;;;;;;2.22;1.23;;;;;;;;;;4994183;28;20073;-63
2022/05/21 10:38:27;;;;;;;4.75;1.08;;;;;;;;;;4994165;28;20437;-58
2022/05/21 10:41:01;;;;;;;1.77;1.30;;;;;;;;;;4993877;28;20054;-64
2022/05/21 10:43:37;;;;;;;1.58;1.20;;;;;;;;;;4993864;28;20042;-61
2022/05/21 10:46:13;;;;;;;17.25;11.20;;;;;;;;;;4993831;28;20206;-60
2022/05/21 10:48:59;;;;;;;7.13;3.22;;;;;;;;;;4994016;28;20038;-62
2022/05/21 10:51:44;;;;;;;1.85;1.10;;;;;;;;;;4993695;28;20048;-64
2022/05/21 10:54:30;;;;;;;4.00;1.20;;;;;;;;;;4993753;28;20046;-56
2022/05/21 10:57:11;;;;;;;1.92;1.20;;;;;;;;;;4993030;28;20042;-61
2022/05/21 11:00:25;;;;;;;1.63;1.00;;;;;;;;;;4993660;28;20038;-64
2022/05/21 11:03:11;;;;;;;4.40;1.20;;;;;;;;;;4952390;29;20046;-57
2022/05/21 11:06:12;;;;;;;1.80;1.27;;;;;;;;;;4952394;29;20152;-63
2022/05/21 11:09:07;;;;;;;3.97;1.27;;;;;;;;;;4984148;28;20528;-56
2022/05/21 11:12:15;;;;;;;2.13;1.13;;;;;;;;;;4993376;28;20057;-63
2022/05/21 11:14:46;;;;;;;2.58;1.42;;;;;;;;;;4992465;28;20057;-58
2022/05/21 11:17:36;;;;;;;2.75;1.35;;;;;;;;;;4993499;28;20070;-56
2022/05/21 11:20:04;;;;;;;5.75;3.67;;;;;;;;;;4986318;28;20104;-51
2022/05/21 11:23:07;;;;;;;2.53;1.45;;;;;;;;;;4993299;28;20046;-53
2022/05/21 11:25:56;;;;;;;5.20;1.30;;;;;;;;;;4992918;28;20050;-51
2022/05/21 11:28:40;;;;;;;1.83;1.02;;;;;;;;;;4984137;28;20063;-59
2022/05/21 11:37:20;;;;;;;1.75;0.95;;;;;;;;;;4973609;28;20098;-53
2022/05/21 11:39:52;;;;;;;2.00;1.20;;;;;;;;;;4973332;28;20035;-53
2022/05/21 11:42:48;;;;;;;2.75;1.00;;;;;;;;;;4973392;28;20039;-50
2022/05/21 11:45:23;;;;;;;6.07;1.08;;;;;;;;;;4973477;28;20142;-56
2022/05/21 11:48:09;;;;;;;2.13;0.82;;;;;;;;;;4973318;28;20050;-53
2022/05/21 11:50:37;;;;;;;2.35;1.10;;;;;;;;;;4972902;28;20138;-50
2022/05/21 11:53:09;;;;;;;2.60;1.10;;;;;;;;;;4972884;28;20130;-52
2022/05/21 11:56:04;;;;;;;1.80;1.05;;;;;;;;;;4956036;28;20515;-55
2022/05/21 11:59:06;;;;;;;12.45;7.47;;;;;;;;;;4969259;28;20059;-52
2022/05/21 12:01:36;;;;;;;2.25;1.10;;;;;;;;;;4932196;29;20127;-59
2022/05/21 12:04:04;;;;;;;3.75;1.10;;;;;;;;;;4966076;28;20055;-56
2022/05/21 12:06:41;;;;;;;1.35;0.90;;;;;;;;;;4972930;28;20063;-53
2022/05/21 12:09:25;;;;;;;1.77;0.90;;;;;;;;;;4973017;28;20395;-59
2022/05/21 12:12:23;;;;;;;1.50;0.90;;;;;;;;;;4972412;28;20045;-54
2022/05/21 12:15:16;;;;;;;2.35;1.27;;;;;;;;;;4972298;28;20490;-53
2022/05/21 12:17:53;;;;;;;1.08;0.80;;;;;;;;;;4972870;28;20105;-60
2022/05/21 12:20:43;;;;;;;2.85;0.90;;;;;;;;;;4972475;28;20038;-59
2022/05/21 12:23:34;;;;;;;1.63;0.80;;;;;;;;;;4972692;28;20047;-60
2022/05/21 12:26:19;;;;;;;1.98;0.90;;;;;;;;;;4972621;28;20121;-57
2022/05/21 12:28:56;;;;;;;4.55;1.08;;;;;;;;;;4983586;28;20042;-52
2022/05/21 12:31:38;;;;;;;4.55;1.00;;;;;;;;;;4973988;28;20046;-51
2022/05/21 12:34:23;;;;;;;2.38;0.82;;;;;;;;;;4991973;28;20069;-53
2022/05/21 12:37:18;;;;;;;2.35;0.90;;;;;;;;;;4991883;28;20042;-54
2022/05/21 12:39:53;;;;;;;2.20;1.08;;;;;;;;;;4991997;28;20058;-51
2022/05/21 12:42:46;;;;;;;2.10;1.20;;;;;;;;;;4986877;28;20043;-54
2022/05/21 12:45:36;;;;;;;2.88;1.08;;;;;;;;;;4971940;28;20046;-52
2022/05/21 12:48:25;;;;;;;1.98;1.20;;;;;;;;;;4970838;28;20122;-52
2022/05/21 12:51:08;;;;;;;1.42;0.80;;;;;;;;;;4972274;28;20417;-52
2022/05/21 12:53:56;;;;;;;15.63;10.10;;;;;;;;;;4976403;28;20061;-51
2022/05/21 12:56:29;;;;;;;3.33;1.08;;;;;;;;;;4976475;28;20045;-53
2022/05/21 12:59:15;;;;;;;2.55;1.10;;;;;;;;;;4975311;28;20043;-47
2022/05/21 13:02:03;;;;;;;1.73;0.88;;;;;;;;;;4976315;28;20046;-47
2022/05/21 13:04:38;;;;;;;2.13;0.98;;;;;;;;;;4974792;28;20046;-49
2022/05/21 13:07:21;;;;;;;5.63;1.20;;;;;;;;;;4976251;28;20054;-51
2022/05/21 13:09:59;;;;;;;1.50;0.82;;;;;;;;;;4976055;28;20039;-50
2022/05/21 13:12:52;;;;;;;2.25;0.80;;;;;;;;;;4975879;28;20081;-52
2022/05/21 13:15:33;;;;;;;2.08;1.00;;;;;;;;;;4976039;28;20152;-47
2022/05/21 13:18:45;;;;;;;2.97;0.70;;;;;;;;;;4976086;28;20047;-48
2022/05/21 13:21:33;;;;;;;2.80;0.82;;;;;;;;;;4966271;28;20429;-51
2022/05/21 13:24:24;;;;;;;2.83;0.80;;;;;;;;;;4976384;28;20043;-47
2022/05/21 13:27:16;;;;;;;1.83;0.90;;;;;;;;;;4975865;28;20051;-53
2022/05/21 13:29:45;;;;;;;2.50;0.90;;;;;;;;;;4994529;28;20042;-57
2022/05/21 13:32:23;;;;;;;2.92;0.90;;;;;;;;;;4995548;28;20121;-58
2022/05/21 13:34:51;;;;;;;2.40;0.85;;;;;;;;;;4995158;28;20101;-58
2022/05/21 13:37:27;;;;;;;1.73;1.35;;;;;;;;;;4993502;28;20525;-59
2022/05/21 13:40:24;;;;;;;2.33;0.88;;;;;;;;;;4995136;28;20463;-59
2022/05/21 13:42:55;;;;;;;5.50;1.10;;;;;;;;;;4995104;28;20066;-59
2022/05/21 13:45:28;;;;;;;2.10;0.70;;;;;;;;;;4995022;28;20125;-58
2022/05/21 13:48:04;;;;;;;1.77;0.90;;;;;;;;;;4995155;28;20402;-58
2022/05/21 13:50:32;;;;;;;1.30;0.80;;;;;;;;;;4994715;28;20564;-55
2022/05/21 13:53:02;;;;;;;2.17;0.80;;;;;;;;;;4994713;28;20039;-49
2022/05/21 13:55:29;;;;;;;2.58;0.85;;;;;;;;;;4994652;28;20097;-55
2022/05/21 13:58:26;;;;;;;1.65;0.90;;;;;;;;;;4994588;28;20042;-60
2022/05/21 14:00:54;;;;;;;4.97;0.70;;;;;;;;;;4977612;28;20102;-55
2022/05/21 14:03:41;;;;;;;1.38;0.70;;;;;;;;;;4993583;28;20039;-57
2022/05/21 14:06:14;;;;;;;1.58;0.50;;;;;;;;;;4994528;28;20114;-47
2022/05/21 14:09:01;;;;;;;3.30;0.90;;;;;;;;;;4994883;28;20073;-54
2022/05/21 14:11:30;;;;;;;4.60;0.95;;;;;;;;;;4994398;28;20046;-48
2022/05/21 14:14:09;;;;;;;3.88;0.85;;;;;;;;;;4994484;28;20451;-51
2022/05/21 14:16:41;;;;;;;2.30;0.85;;;;;;;;;;4994355;28;20042;-49
2022/05/21 14:19:18;;;;;;;1.23;0.70;;;;;;;;;;4994158;28;20134;-54
2022/05/21 14:22:15;;;;;;;2.75;0.90;;;;;;;;;;4994435;28;20046;-56
2022/05/21 14:24:47;;;;;;;1.85;0.90;;;;;;;;;;4994340;28;20046;-52
2022/05/21 14:27:21;;;;;;;2.95;1.10;;;;;;;;;;4993906;28;20517;-58
2022/05/21 14:29:55;;;;;;;3.33;0.80;;;;;;;;;;4974959;28;20399;-56
2022/05/21 14:32:35;;;;;;;2.47;0.90;;;;;;;;;;4974658;28;20077;-59
2022/05/21 14:35:16;;;;;;;2.60;1.10;;;;;;;;;;4974655;28;20054;-54
2022/05/21 14:37:47;;;;;;;2.55;0.90;;;;;;;;;;4974666;28;20042;-51
2022/05/21 14:40:14;;;;;;;1.65;0.80;;;;;;;;;;4974622;28;20047;-50
2022/05/21 14:42:42;;;;;;;2.25;1.00;;;;;;;;;;4974543;28;20507;-53
2022/05/21 14:45:15;;;;;;;4.18;0.95;;;;;;;;;;4974357;28;20042;-47
2022/05/21 14:47:53;;;;;;;2.28;1.02;;;;;;;;;;4974534;28;20047;-46
2022/05/21 14:53:29;;;;;;;1.67;0.85;;;;;;;;;;4974120;28;20506;-47
2022/05/21 14:55:58;;;;;;;2.20;1.00;;;;;;;;;;4974147;28;20042;-53
2022/05/21 14:58:27;;;;;;;3.38;0.93;;;;;;;;;;4973828;28;20043;-48
2022/05/21 15:00:54;;;;;;;3.00;1.08;;;;;;;;;;4974290;28;20383;-49
2022/05/21 15:03:27;;;;;;;2.67;1.35;;;;;;;;;;4974127;28;20059;-54
2022/05/21 15:05:55;;;;;;;7.25;3.83;;;;;;;;;;4973884;28;20495;-53
2022/05/21 15:08:33;;;;;;;2.05;1.05;;;;;;;;;;4974099;28;20042;-57
2022/05/21 15:11:01;;;;;;;2.47;0.90;;;;;;;;;;4973600;28;20034;-55
2022/05/21 15:13:28;;;;;;;2.30;0.73;;;;;;;;;;4974014;28;20406;-54
2022/05/21 15:15:55;;;;;;;2.70;0.95;;;;;;;;;;4973567;28;20046;-54
2022/05/21 15:18:23;;;;;;;2.90;1.00;;;;;;;;;;4973574;28;20486;-57
2022/05/21 15:20:50;;;;;;;2.70;1.75;;;;;;;;;;4973633;28;20502;-56
2022/05/21 15:23:17;;;;;;;4.63;1.38;;;;;;;;;;4973719;28;20485;-58
2022/05/21 15:25:46;;;;;;;3.05;1.08;;;;;;;;;;4973615;28;20043;-48
2022/05/21 15:28:14;;;;;;;71.60;35.75;;;;;;;;;;4980311;28;20046;-54
2022/05/21 15:30:42;;;;;;;6.10;2.20;;;;;;;;;;4993060;28;20065;-55
2022/05/21 15:33:10;;;;;;;2.58;1.42;;;;;;;;;;4993022;28;20038;-57
2022/05/21 15:35:38;;;;;;;2.90;1.33;;;;;;;;;;4993052;28;20516;-55
2022/05/21 15:38:06;;;;;;;2.17;1.20;;;;;;;;;;4992787;28;20053;-49
2022/05/21 15:40:36;;;;;;;2.90;1.00;;;;;;;;;;4992781;28;20093;-53
2022/05/21 15:43:04;;;;;;;2.63;1.15;;;;;;;;;;4992681;28;20035;-49
2022/05/21 15:45:32;;;;;;;4.32;1.63;;;;;;;;;;4992734;28;20470;-51
2022/05/21 15:48:00;;;;;;;3.88;0.70;;;;;;;;;;4992624;28;20049;-60
2022/05/21 15:50:30;;;;;;;4.85;1.30;;;;;;;;;;4992372;28;20043;-49
2022/05/21 15:52:59;;;;;;;2.17;0.90;;;;;;;;;;4992513;28;20042;-54
2022/05/21 15:55:28;;;;;;;1.10;0.70;;;;;;;;;;4992498;28;20576;-50